createdAt,value
2023-03-29T00:00:15.136Z,95.30
2023-03-29T00:02:48.411Z,95.10
2023-03-29T00:05:18.360Z,95.30
2023-03-29T00:07:46.708Z,95.40
2023-03-29T00:10:14.894Z,95.20
2023-03-29T00:12:43.086Z,95.10
2023-03-29T00:15:11.989Z,95.30
2023-03-29T00:17:41.716Z,95.50
2023-03-29T00:20:11.243Z,95.50
2023-03-29T00:22:42.111Z,95.50
2023-03-29T00:25:11.632Z,95.10
2023-03-29T00:27:40.339Z,95.00
2023-03-29T00:30:10.376Z,95.10
2023-03-29T00:32:38.847Z,94.90
2023-03-29T00:35:09.313Z,95.00
2023-03-29T00:37:38.053Z,94.80
2023-03-29T00:40:09.871Z,94.80
2023-03-29T00:42:38.488Z,94.80
2023-03-29T00:45:17.571Z,94.80
2023-03-29T00:47:47.696Z,94.80
2023-03-29T00:50:22.289Z,94.70
2023-03-29T00:52:54.799Z,94.70
2023-03-29T00:55:25.231Z,94.60
2023-03-29T00:57:55.749Z,94.50
2023-03-29T01:00:28.035Z,94.50
2023-03-29T01:02:59.756Z,94.60
2023-03-29T01:05:32.230Z,94.60
2023-03-29T01:08:02.395Z,94.50
2023-03-29T01:10:35.729Z,94.40
2023-03-29T01:13:07.623Z,94.50
2023-03-29T01:15:36.049Z,94.50
2023-03-29T01:18:04.297Z,94.40
2023-03-29T01:20:49.172Z,94.30
2023-03-29T01:23:32.864Z,94.30
2023-03-29T01:26:07.856Z,94.20
2023-03-29T01:28:39.456Z,94.60
2023-03-29T01:31:10.440Z,94.90
2023-03-29T01:33:40.814Z,95.00
2023-03-29T01:36:13.957Z,94.50
2023-03-29T01:38:44.976Z,94.20
2023-03-29T01:41:13.522Z,94.20
2023-03-29T01:43:46.842Z,94.00
2023-03-29T01:46:20.874Z,93.30
2023-03-29T01:48:51.892Z,92.70
2023-03-29T01:51:23.851Z,92.10
2023-03-29T01:53:56.268Z,91.90
2023-03-29T01:56:26.523Z,91.70
2023-03-29T01:58:58.761Z,91.90
2023-03-29T02:01:30.036Z,91.80
2023-03-29T02:04:01.843Z,91.60
2023-03-29T02:06:31.680Z,92.00
2023-03-29T02:08:59.819Z,92.40
2023-03-29T02:11:29.388Z,92.90
2023-03-29T02:13:59.107Z,93.20
2023-03-29T02:16:27.864Z,93.00
2023-03-29T02:18:57.767Z,93.20
2023-03-29T02:21:29.228Z,93.50
2023-03-29T02:23:59.377Z,93.60
2023-03-29T02:26:27.829Z,93.80
2023-03-29T02:28:56.204Z,94.10
2023-03-29T02:31:30.390Z,93.90
2023-03-29T02:34:01.330Z,94.00
2023-03-29T02:36:33.269Z,93.90
2023-03-29T02:39:04.406Z,94.10
2023-03-29T02:41:33.103Z,94.10
2023-03-29T02:44:02.182Z,94.20
2023-03-29T02:46:31.960Z,94.50
2023-03-29T02:49:00.925Z,94.40
2023-03-29T02:51:32.191Z,94.60
2023-03-29T02:54:03.187Z,94.50
2023-03-29T02:56:31.691Z,94.50
2023-03-29T02:58:59.898Z,94.40
2023-03-29T03:01:28.304Z,94.20
2023-03-29T03:03:58.532Z,94.20
2023-03-29T03:06:27.391Z,94.20
2023-03-29T03:08:55.754Z,94.20
2023-03-29T03:11:24.006Z,94.20
2023-03-29T03:13:52.366Z,94.10
2023-03-29T03:16:20.689Z,94.10
2023-03-29T03:18:51.025Z,94.10
2023-03-29T03:21:21.049Z,94.40
2023-03-29T03:23:49.656Z,94.20
2023-03-29T03:26:18.396Z,94.20
2023-03-29T03:28:46.833Z,94.30
2023-03-29T03:31:15.420Z,94.60
2023-03-29T03:33:43.651Z,94.80
2023-03-29T03:36:12.339Z,94.80
2023-03-29T03:38:44.043Z,94.90
2023-03-29T03:41:12.362Z,94.90
2023-03-29T03:43:42.998Z,94.40
2023-03-29T03:46:11.300Z,94.30
2023-03-29T03:48:39.571Z,94.50
2023-03-29T03:51:08.019Z,94.60
2023-03-29T03:53:36.298Z,94.50
2023-03-29T03:56:09.055Z,94.20
2023-03-29T03:58:37.723Z,94.20
2023-03-29T04:01:08.412Z,94.40
2023-03-29T04:03:37.642Z,94.50
2023-03-29T04:06:06.858Z,94.60
2023-03-29T04:08:35.065Z,94.80
2023-03-29T04:11:03.600Z,94.80
2023-03-29T04:13:33.578Z,94.70
2023-03-29T04:16:02.016Z,94.50
2023-03-29T04:18:30.440Z,94.40
2023-03-29T04:20:58.695Z,94.30
2023-03-29T04:23:26.942Z,94.30
2023-03-29T04:25:56.433Z,94.60
2023-03-29T04:28:24.658Z,94.40
2023-03-29T04:30:54.305Z,94.70
2023-03-29T04:33:22.631Z,94.50
2023-03-29T04:35:50.866Z,94.80
2023-03-29T04:38:23.319Z,95.00
2023-03-29T04:40:51.903Z,94.90
2023-03-29T04:43:20.281Z,95.10
2023-03-29T04:45:48.498Z,94.90
2023-03-29T04:48:18.146Z,94.90
2023-03-29T04:50:47.604Z,95.00
2023-03-29T04:53:15.833Z,95.00
2023-03-29T04:55:44.010Z,95.20
2023-03-29T04:58:12.234Z,95.10
2023-03-29T05:00:40.588Z,95.00
2023-03-29T05:03:11.592Z,94.90
2023-03-29T05:05:41.322Z,94.70
2023-03-29T05:08:10.750Z,94.70
2023-03-29T05:10:38.919Z,94.60
2023-03-29T05:13:07.252Z,94.60
2023-03-29T05:15:35.452Z,94.60
2023-03-29T05:18:03.781Z,94.60
2023-03-29T05:20:32.093Z,94.60
2023-03-29T05:23:01.688Z,94.50
2023-03-29T05:25:30.354Z,94.60
2023-03-29T05:27:59.108Z,94.70
2023-03-29T05:30:27.365Z,94.80
2023-03-29T05:32:55.623Z,95.00
2023-03-29T05:35:25.586Z,94.70
2023-03-29T05:37:53.933Z,94.50
2023-03-29T05:40:26.293Z,94.70
2023-03-29T05:42:54.741Z,94.20
2023-03-29T05:45:23.087Z,94.20
2023-03-29T05:47:51.440Z,93.80
2023-03-29T05:50:20.041Z,93.60
2023-03-29T05:52:48.206Z,93.30
2023-03-29T05:55:16.662Z,92.60
2023-03-29T05:57:46.605Z,92.30
2023-03-29T06:00:24.008Z,92.10
2023-03-29T06:02:52.848Z,91.80
2023-03-29T06:05:21.244Z,91.80
2023-03-29T06:07:49.861Z,91.80
2023-03-29T06:10:18.524Z,91.60
2023-03-29T06:12:49.591Z,91.70
2023-03-29T06:15:18.160Z,91.10
2023-03-29T06:17:48.348Z,91.40
2023-03-29T06:20:17.181Z,91.40
2023-03-29T06:22:46.774Z,91.30
2023-03-29T06:25:17.573Z,91.40
2023-03-29T06:27:48.107Z,91.40
2023-03-29T06:30:17.052Z,91.50
2023-03-29T06:32:45.407Z,91.80
2023-03-29T06:35:15.149Z,91.90
2023-03-29T06:37:49.582Z,92.00
2023-03-29T06:40:19.077Z,92.00
2023-03-29T06:42:48.813Z,92.30
2023-03-29T06:45:17.166Z,92.20
2023-03-29T06:47:45.449Z,92.20
2023-03-29T06:50:14.810Z,92.30
2023-03-29T06:52:43.056Z,92.20
2023-03-29T06:55:12.025Z,92.30
2023-03-29T06:57:40.325Z,92.50
2023-03-29T07:00:16.707Z,92.40
2023-03-29T07:02:45.805Z,92.40
2023-03-29T07:05:14.783Z,92.30
2023-03-29T07:07:56.582Z,92.10
2023-03-29T07:10:28.135Z,91.80
2023-03-29T07:12:56.540Z,91.40
2023-03-29T07:15:26.231Z,91.40
2023-03-29T07:17:54.669Z,91.60
2023-03-29T07:20:23.121Z,91.70
2023-03-29T07:22:52.200Z,91.50
2023-03-29T07:25:21.748Z,91.30
2023-03-29T07:27:50.475Z,91.50
2023-03-29T07:30:21.177Z,91.20
2023-03-29T07:32:52.404Z,90.80
2023-03-29T07:35:21.193Z,90.90
2023-03-29T07:37:49.383Z,91.00
2023-03-29T07:40:23.375Z,91.20
2023-03-29T07:42:53.102Z,91.50
2023-03-29T07:45:26.474Z,91.50
2023-03-29T07:47:59.510Z,91.40
2023-03-29T07:50:28.340Z,91.60
2023-03-29T07:52:56.957Z,91.70
2023-03-29T07:55:25.229Z,91.90
2023-03-29T07:57:53.638Z,92.00
2023-03-29T08:00:24.949Z,91.90
2023-03-29T08:02:53.781Z,91.60
2023-03-29T08:05:37.823Z,91.80
2023-03-29T08:08:09.807Z,91.90
2023-03-29T08:10:39.484Z,91.50
2023-03-29T08:13:09.210Z,91.40
2023-03-29T08:15:39.306Z,91.50
2023-03-29T08:18:07.844Z,91.20
2023-03-29T08:20:37.723Z,91.40
2023-03-29T08:23:06.437Z,91.20
2023-03-29T08:25:35.230Z,91.60
2023-03-29T08:28:03.544Z,91.40
2023-03-29T08:30:31.829Z,91.50
2023-03-29T08:33:00.160Z,91.60
2023-03-29T08:35:28.549Z,91.00
2023-03-29T08:37:58.219Z,91.20
2023-03-29T08:40:30.064Z,90.90
2023-03-29T08:43:24.012Z,90.90
2023-03-29T08:46:02.859Z,91.20
2023-03-29T08:48:33.008Z,90.80
2023-03-29T08:51:03.717Z,90.90
2023-03-29T08:53:36.479Z,90.70
2023-03-29T08:56:08.663Z,90.50
2023-03-29T08:58:38.694Z,90.80
2023-03-29T09:01:11.473Z,90.70
2023-03-29T09:03:44.068Z,91.00
2023-03-29T09:06:13.884Z,91.00
2023-03-29T09:08:46.298Z,90.60
2023-03-29T09:11:36.657Z,90.70
2023-03-29T09:14:14.553Z,90.30
2023-03-29T09:16:47.694Z,90.60
2023-03-29T09:19:24.189Z,90.10
2023-03-29T09:21:59.237Z,89.50
2023-03-29T09:24:48.260Z,88.60
2023-03-29T09:27:21.212Z,87.70
2023-03-29T09:29:57.373Z,88.00
2023-03-29T09:32:29.560Z,87.60
2023-03-29T09:35:04.468Z,87.60
2023-03-29T09:37:34.836Z,87.00
2023-03-29T09:40:11.291Z,87.40
2023-03-29T09:42:40.945Z,88.10
2023-03-29T09:45:10.797Z,88.70
2023-03-29T09:47:42.154Z,88.60
2023-03-29T09:50:29.577Z,88.50
2023-03-29T09:52:59.014Z,89.30
2023-03-29T09:55:30.528Z,88.10
2023-03-29T09:58:00.290Z,89.40
2023-03-29T10:00:28.852Z,89.20
2023-03-29T10:03:00.269Z,89.40
2023-03-29T10:05:32.051Z,89.20
2023-03-29T10:08:02.250Z,88.40
2023-03-29T10:10:34.680Z,89.30
2023-03-29T10:13:06.047Z,89.30
2023-03-29T10:15:34.355Z,88.70
2023-03-29T10:18:04.602Z,89.90
2023-03-29T10:20:36.271Z,90.30
2023-03-29T10:23:07.939Z,90.00
2023-03-29T10:25:42.581Z,90.60
2023-03-29T10:28:18.564Z,91.40
2023-03-29T10:30:53.476Z,90.70
2023-03-29T10:33:24.675Z,90.40
2023-03-29T10:35:53.054Z,90.20
2023-03-29T10:38:24.132Z,89.20
2023-03-29T10:40:54.523Z,90.20
2023-03-29T10:43:24.803Z,88.30
2023-03-29T10:45:54.989Z,88.10
2023-03-29T10:48:26.621Z,88.80
2023-03-29T10:50:55.038Z,88.30
2023-03-29T10:53:26.811Z,88.40
2023-03-29T10:56:04.933Z,89.30
2023-03-29T10:58:39.861Z,89.20
2023-03-29T11:01:13.042Z,89.10
2023-03-29T11:04:04.120Z,88.30
2023-03-29T11:06:36.993Z,90.10
2023-03-29T11:09:08.062Z,88.60
2023-03-29T11:12:08.310Z,88.10
2023-03-29T11:14:50.425Z,86.30
2023-03-29T11:17:27.944Z,86.10
2023-03-29T11:20:05.102Z,87.40
2023-03-29T11:22:40.632Z,86.50
2023-03-29T11:25:29.119Z,86.30
2023-03-29T11:28:03.833Z,86.70
2023-03-29T11:30:35.259Z,86.80
2023-03-29T11:33:10.674Z,86.40
2023-03-29T11:35:46.582Z,86.70
2023-03-29T11:38:20.311Z,85.90
2023-03-29T11:40:56.615Z,85.80
2023-03-29T11:43:31.224Z,85.90
2023-03-29T11:46:03.643Z,86.00
2023-03-29T11:48:35.857Z,86.20
2023-03-29T11:51:11.257Z,86.70
2023-03-29T11:53:45.380Z,86.50
2023-03-29T11:56:16.465Z,86.40
2023-03-29T11:58:48.602Z,85.90
2023-03-29T12:01:20.019Z,87.30
2023-03-29T12:03:51.699Z,86.40
2023-03-29T12:06:23.038Z,87.10
2023-03-29T12:08:53.878Z,86.80
2023-03-29T12:11:27.192Z,87.50
2023-03-29T12:14:00.164Z,85.90
2023-03-29T12:16:32.391Z,85.70
2023-03-29T12:19:06.041Z,86.40
2023-03-29T12:21:35.004Z,86.60
2023-03-29T12:24:03.247Z,85.70
2023-03-29T12:26:46.866Z,85.80
2023-03-29T12:29:29.012Z,84.90
2023-03-29T12:32:02.125Z,84.40
2023-03-29T12:34:51.292Z,82.90
2023-03-29T12:37:32.047Z,81.50
2023-03-29T12:40:13.812Z,83.10
2023-03-29T12:42:49.171Z,83.90
2023-03-29T12:45:28.374Z,82.20
2023-03-29T12:47:57.746Z,82.70
2023-03-29T12:50:28.995Z,81.50
2023-03-29T12:53:04.662Z,83.10
2023-03-29T12:55:36.145Z,83.30
2023-03-29T12:58:06.885Z,82.70
2023-03-29T13:00:46.258Z,83.60
2023-03-29T13:03:23.494Z,85.20
2023-03-29T13:06:01.375Z,83.60
2023-03-29T13:08:35.763Z,84.50
2023-03-29T13:11:04.832Z,85.80
2023-03-29T13:13:36.321Z,84.90
2023-03-29T13:16:15.715Z,83.90
2023-03-29T13:18:55.451Z,84.20
2023-03-29T13:21:28.862Z,84.20
2023-03-29T13:24:02.999Z,84.20
2023-03-29T13:26:44.443Z,84.30
2023-03-29T13:29:30.370Z,85.40
2023-03-29T13:32:04.857Z,85.50
2023-03-29T13:34:39.362Z,85.90
2023-03-29T13:37:18.047Z,86.90
2023-03-29T13:39:51.442Z,87.10
2023-03-29T13:42:24.560Z,87.20
2023-03-29T13:44:53.899Z,86.80
2023-03-29T13:47:54.982Z,86.00
2023-03-29T13:50:37.859Z,85.90
2023-03-29T13:53:12.365Z,86.20
2023-03-29T13:55:48.953Z,86.90
2023-03-29T13:58:27.273Z,87.40
2023-03-29T14:01:00.927Z,86.90
2023-03-29T14:03:33.473Z,86.80
2023-03-29T14:06:02.881Z,87.10
2023-03-29T14:08:34.698Z,87.80
2023-03-29T14:11:05.930Z,88.00
2023-03-29T14:13:34.735Z,88.80
2023-03-29T14:16:04.782Z,88.10
2023-03-29T14:18:37.559Z,87.90
2023-03-29T14:21:06.476Z,88.00
2023-03-29T14:23:37.494Z,88.50
2023-03-29T14:26:09.157Z,88.50
2023-03-29T14:28:37.639Z,87.80
2023-03-29T14:31:07.951Z,87.80
2023-03-29T14:33:38.117Z,87.60
2023-03-29T14:36:07.528Z,87.90
2023-03-29T14:38:37.337Z,88.70
2023-03-29T14:41:06.437Z,88.70
2023-03-29T14:43:34.616Z,88.60
2023-03-29T14:46:06.332Z,88.90
2023-03-29T14:48:35.728Z,89.00
2023-03-29T14:51:06.578Z,89.50
2023-03-29T14:53:37.102Z,89.10
2023-03-29T14:56:06.819Z,89.20
2023-03-29T14:58:36.949Z,89.40
2023-03-29T15:01:15.317Z,89.40
2023-03-29T15:03:44.791Z,89.50
2023-03-29T15:06:14.863Z,89.40
2023-03-29T15:08:51.165Z,90.00
2023-03-29T15:11:30.837Z,90.10
2023-03-29T15:14:03.290Z,90.50
2023-03-29T15:16:31.898Z,90.60
2023-03-29T15:19:02.172Z,91.00
2023-03-29T15:21:33.854Z,90.90
2023-03-29T15:24:03.869Z,90.90
2023-03-29T15:26:33.737Z,91.20
2023-03-29T15:29:08.980Z,91.30
2023-03-29T15:31:38.789Z,91.70
2023-03-29T15:34:09.694Z,91.80
2023-03-29T15:36:43.335Z,91.70
2023-03-29T15:39:13.254Z,91.70
2023-03-29T15:41:41.537Z,91.80
2023-03-29T15:44:10.091Z,92.10
2023-03-29T15:46:38.475Z,92.10
2023-03-29T15:49:07.340Z,92.30
2023-03-29T15:51:35.674Z,92.50
2023-03-29T15:54:06.433Z,92.40
2023-03-29T15:56:37.136Z,92.50
2023-03-29T15:59:05.689Z,92.80
2023-03-29T16:01:37.892Z,92.50
2023-03-29T16:04:07.856Z,92.60
2023-03-29T16:06:36.199Z,92.70
2023-03-29T16:09:07.164Z,92.80
2023-03-29T16:11:35.789Z,92.90
2023-03-29T16:14:04.016Z,93.10
2023-03-29T16:16:32.360Z,93.30
2023-03-29T16:19:00.637Z,93.60
2023-03-29T16:21:29.386Z,93.60
2023-03-29T16:23:57.703Z,93.70
2023-03-29T16:26:27.460Z,93.80
2023-03-29T16:28:55.726Z,93.80
2023-03-29T16:31:26.907Z,93.50
2023-03-29T16:33:55.282Z,93.60
2023-03-29T16:36:23.593Z,93.70
2023-03-29T16:38:51.953Z,93.70
2023-03-29T16:41:20.189Z,93.60
2023-03-29T16:43:49.891Z,93.50
2023-03-29T16:46:18.149Z,93.60
2023-03-29T16:48:46.456Z,93.50
2023-03-29T16:51:14.619Z,93.40
2023-03-29T16:53:43.161Z,93.40
2023-03-29T16:56:11.882Z,93.40
2023-03-29T16:58:40.321Z,93.40
2023-03-29T17:01:11.000Z,93.40
2023-03-29T17:03:39.782Z,93.30
2023-03-29T17:06:09.788Z,93.40
2023-03-29T17:08:38.866Z,93.40
2023-03-29T17:11:07.659Z,93.50
2023-03-29T17:13:37.451Z,93.60
2023-03-29T17:16:06.630Z,93.90
2023-03-29T17:18:36.748Z,93.80
2023-03-29T17:21:05.577Z,93.90
2023-03-29T17:23:33.792Z,93.80
2023-03-29T17:26:02.420Z,93.80
2023-03-29T17:28:30.793Z,93.90
2023-03-29T17:30:59.058Z,93.90
2023-03-29T17:36:28.999Z,94.00
2023-03-29T17:41:30.868Z,94.00
2023-03-29T17:43:59.338Z,94.10
2023-03-29T17:46:27.774Z,94.10
2023-03-29T17:48:56.107Z,94.10
2023-03-29T17:51:24.715Z,94.40
2023-03-29T17:53:54.814Z,94.10
2023-03-29T17:56:23.020Z,94.10
2023-03-29T17:58:51.367Z,94.20
2023-03-29T18:01:20.452Z,94.30
2023-03-29T18:03:49.283Z,94.20
2023-03-29T18:06:20.273Z,94.20
2023-03-29T18:08:48.948Z,94.20
2023-03-29T18:11:22.840Z,94.30
2023-03-29T18:13:51.530Z,94.30
2023-03-29T18:16:20.569Z,94.30
2023-03-29T18:18:49.379Z,94.20
2023-03-29T18:21:18.271Z,94.40
2023-03-29T18:23:48.172Z,94.40
2023-03-29T18:26:18.167Z,94.60
2023-03-29T18:28:47.772Z,94.90
2023-03-29T18:31:16.522Z,95.10
2023-03-29T18:33:44.767Z,95.40
2023-03-29T18:36:13.633Z,95.50
2023-03-29T18:38:43.318Z,95.70
2023-03-29T18:41:13.279Z,95.90
2023-03-29T18:43:44.322Z,95.80
2023-03-29T18:46:12.726Z,95.90
2023-03-29T18:48:42.113Z,95.90
2023-03-29T18:51:12.596Z,96.00
2023-03-29T18:53:42.858Z,96.20
2023-03-29T18:56:11.312Z,96.30
2023-03-29T18:58:39.597Z,96.50
2023-03-29T19:01:10.803Z,96.60
2023-03-29T19:03:39.258Z,96.70
2023-03-29T19:06:07.961Z,96.50
2023-03-29T19:08:37.402Z,96.70
2023-03-29T19:11:07.560Z,96.70
2023-03-29T19:13:35.890Z,96.80
2023-03-29T19:16:04.938Z,97.00
2023-03-29T19:18:34.972Z,96.90
2023-03-29T19:21:03.269Z,96.90
2023-03-29T19:23:31.494Z,97.00
2023-03-29T19:26:02.613Z,97.00
2023-03-29T19:28:31.166Z,97.00
2023-03-29T19:31:00.733Z,97.30
2023-03-29T19:33:29.495Z,97.00
2023-03-29T19:35:59.128Z,97.00
2023-03-29T19:38:27.358Z,97.20
2023-03-29T19:40:55.657Z,97.30
2023-03-29T19:43:24.911Z,97.20
2023-03-29T19:45:53.170Z,97.10
2023-03-29T19:48:23.116Z,97.20
2023-03-29T19:50:52.269Z,97.30
2023-03-29T19:53:23.231Z,97.20
2023-03-29T19:55:52.396Z,97.30
2023-03-29T19:58:20.678Z,97.40
2023-03-29T20:00:50.722Z,97.40
2023-03-29T20:03:18.917Z,97.50
2023-03-29T20:05:47.491Z,97.50
2023-03-29T20:08:15.773Z,97.70
2023-03-29T20:10:45.407Z,97.60
2023-03-29T20:13:14.585Z,97.90
2023-03-29T20:15:47.081Z,97.80
2023-03-29T20:18:15.429Z,97.90
2023-03-29T20:20:44.695Z,98.00
2023-03-29T20:23:12.869Z,98.00
2023-03-29T20:25:41.036Z,98.10
2023-03-29T20:28:12.815Z,98.20
2023-03-29T20:30:42.217Z,98.10
2023-03-29T20:33:10.451Z,98.20
2023-03-29T20:35:38.742Z,98.10
2023-03-29T20:38:07.104Z,98.10
2023-03-29T20:40:37.168Z,98.10
2023-03-29T20:43:05.531Z,98.20
2023-03-29T20:45:49.871Z,98.40
2023-03-29T20:48:22.182Z,98.10
2023-03-29T20:50:50.421Z,98.10
2023-03-29T20:53:20.523Z,98.20
2023-03-29T20:55:49.121Z,98.20
2023-03-29T20:58:17.397Z,98.10
2023-03-29T21:00:48.456Z,98.20
2023-03-29T21:03:17.000Z,98.20
2023-03-29T21:05:45.334Z,98.40
2023-03-29T21:08:17.574Z,98.40
2023-03-29T21:10:47.833Z,98.40
2023-03-29T21:13:16.003Z,98.30
2023-03-29T21:15:44.313Z,98.50
2023-03-29T21:18:13.991Z,98.50
2023-03-29T21:20:42.381Z,98.40
2023-03-29T21:23:10.776Z,98.50
2023-03-29T21:25:38.952Z,98.50
2023-03-29T21:28:07.180Z,98.50
2023-03-29T21:30:35.442Z,98.50
2023-03-29T21:33:04.208Z,98.40
2023-03-29T21:35:35.609Z,98.40
2023-03-29T21:38:03.898Z,98.70
2023-03-29T21:40:32.080Z,98.80
2023-03-29T21:43:00.276Z,98.80
2023-03-29T21:45:28.444Z,98.80
2023-03-29T21:47:56.760Z,98.80
2023-03-29T21:50:25.649Z,98.90
2023-03-29T21:52:55.236Z,98.90
2023-03-29T21:55:23.493Z,98.90
2023-03-29T21:57:51.678Z,98.90
2023-03-29T22:00:21.413Z,98.80
2023-03-29T22:02:49.637Z,98.80
2023-03-29T22:05:18.018Z,98.90
2023-03-29T22:07:50.413Z,99.00
2023-03-29T22:10:22.822Z,99.10
2023-03-29T22:12:51.962Z,99.20
2023-03-29T22:15:21.063Z,99.00
2023-03-29T22:17:50.514Z,99.10
2023-03-29T22:20:18.983Z,99.20
2023-03-29T22:22:49.781Z,99.40
2023-03-29T22:25:20.435Z,99.30
2023-03-29T22:27:49.477Z,99.20
2023-03-29T22:30:18.260Z,99.30
2023-03-29T22:32:46.544Z,99.30
2023-03-29T22:35:14.817Z,99.50
2023-03-29T22:37:44.753Z,99.40
2023-03-29T22:40:14.014Z,99.50
2023-03-29T22:42:43.639Z,99.60
2023-03-29T22:45:12.103Z,99.70
2023-03-29T22:47:40.391Z,99.60
2023-03-29T22:50:09.724Z,99.80
2023-03-29T22:52:38.022Z,99.70
2023-03-29T22:55:06.964Z,99.90
2023-03-29T22:57:35.170Z,99.90
2023-03-29T23:00:09.081Z,99.90
2023-03-29T23:02:38.010Z,99.90
2023-03-29T23:05:06.962Z,99.90
2023-03-29T23:07:36.481Z,99.90
2023-03-29T23:10:06.463Z,99.90
2023-03-29T23:12:36.224Z,99.90
2023-03-29T23:15:08.084Z,99.90
2023-03-29T23:17:37.207Z,99.90
2023-03-29T23:20:07.126Z,99.90
2023-03-29T23:22:36.453Z,99.90
2023-03-29T23:25:04.907Z,99.90
2023-03-29T23:27:34.636Z,99.90
2023-03-29T23:30:02.817Z,99.90
2023-03-29T23:32:32.536Z,99.90
2023-03-29T23:35:01.331Z,99.90
2023-03-29T23:37:29.517Z,99.90
2023-03-29T23:39:57.734Z,99.90
2023-03-29T23:42:25.949Z,99.90
2023-03-29T23:44:54.102Z,99.90
2023-03-29T23:47:22.388Z,99.90
2023-03-29T23:49:53.326Z,99.90
2023-03-29T23:52:21.555Z,99.90
2023-03-29T23:54:51.276Z,99.90
2023-03-29T23:57:19.663Z,99.90
2023-03-29T23:59:52.801Z,99.90
